BAW3 EHRD-EGKK
Flight info
| Callsign | BAW3 |
|---|---|
| Flight time | N/A |
| Altitude | 24000 |
| Route | ABNED Z344 AMRIV Q63 ARREK Y4 TEBRA |
| Aircraft | B722/M-SDFGHRWY/C |
Departure
| Time | 2026-04-27 14:41 |
|---|---|
| Airport | Rotterdam The Hague Airport (EHRD) |
Arrival
| Time | N/A |
|---|---|
| Airport | London Gatwick Airport (EGKK) |
| Time | Latitude | Longitude | Altitude | Speed | Heading |
|---|---|---|---|---|---|
| 2026-04-27 14:20 | 51.95083 | 4.43436 | 4 ft | 0 kts | 327° |
| 2026-04-27 14:34 | 51.95077 | 4.43443 | 4 ft | 4 kts | 327° |
| 2026-04-27 14:34 | 51.95064 | 4.43456 | 4 ft | 0 kts | 327° |
| 2026-04-27 14:34 | 51.95070 | 4.43450 | 4 ft | 3 kts | 327° |
| 2026-04-27 14:34 | 51.95077 | 4.43442 | 4 ft | 0 kts | 327° |
| 2026-04-27 14:35 | 51.95078 | 4.43441 | 4 ft | 0 kts | 327° |
| 2026-04-27 14:36 | 51.95102 | 4.43416 | 4 ft | 8 kts | 327° |
| 2026-04-27 14:36 | 51.95120 | 4.43408 | 4 ft | 3 kts | 22° |
| 2026-04-27 14:36 | 51.95149 | 4.43455 | 4 ft | 9 kts | 55° |
| 2026-04-27 14:37 | 51.95188 | 4.43493 | 4 ft | 4 kts | 333° |
| 2026-04-27 14:37 | 51.95205 | 4.43476 | 4 ft | 0 kts | 326° |
| 2026-04-27 14:37 | 51.95209 | 4.43471 | 4 ft | 3 kts | 327° |
| 2026-04-27 14:37 | 51.95240 | 4.43434 | 4 ft | 2 kts | 302° |
| 2026-04-27 14:38 | 51.95240 | 4.43404 | 4 ft | 6 kts | 256° |
| 2026-04-27 14:38 | 51.95209 | 4.43315 | 4 ft | 13 kts | 237° |
| 2026-04-27 14:38 | 51.95152 | 4.43164 | 4 ft | 18 kts | 242° |
| 2026-04-27 14:38 | 51.95115 | 4.43040 | 4 ft | 0 kts | 251° |
| 2026-04-27 14:39 | 51.95114 | 4.43036 | 4 ft | 2 kts | 252° |
| 2026-04-27 14:39 | 51.95111 | 4.42982 | 4 ft | 8 kts | 276° |
| 2026-04-27 14:39 | 51.95143 | 4.42915 | 4 ft | 10 kts | 318° |
| 2026-04-27 14:39 | 51.95213 | 4.42849 | 5 ft | 12 kts | 341° |
| 2026-04-27 14:40 | 51.95223 | 4.42852 | 6 ft | 0 kts | 63° |
| 2026-04-27 14:40 | 51.95227 | 4.42866 | 6 ft | 8 kts | 59° |
| 2026-04-27 14:40 | 51.95395 | 4.43283 | 3 ft | 91 kts | 57° |
| 2026-04-27 14:41 | 51.95881 | 4.44504 | 311 ft | 149 kts | 58° |
| 2026-04-27 14:41 | 51.96469 | 4.46028 | 1238 ft | 167 kts | 55° |
| 2026-04-27 14:41 | 51.97079 | 4.47667 | 2241 ft | 174 kts | 58° |
| 2026-04-27 14:41 | 51.97705 | 4.49414 | 3161 ft | 184 kts | 59° |
| 2026-04-27 14:42 | 51.98496 | 4.51035 | 4032 ft | 189 kts | 39° |
| 2026-04-27 14:42 | 51.99683 | 4.51849 | 4990 ft | 190 kts | 2° |
| 2026-04-27 14:42 | 52.01029 | 4.51394 | 5442 ft | 217 kts | 338° |
| 2026-04-27 14:42 | 52.02214 | 4.49529 | 5324 ft | 256 kts | 300° |
| 2026-04-27 14:43 | 52.02576 | 4.46596 | 5172 ft | 278 kts | 269° |
| 2026-04-27 14:43 | 52.02126 | 4.43538 | 5057 ft | 289 kts | 249° |
| 2026-04-27 14:43 | 52.00936 | 4.40896 | 4987 ft | 294 kts | 223° |
| 2026-04-27 14:43 | 51.99233 | 4.39067 | 5000 ft | 294 kts | 210° |
| 2026-04-27 14:44 | 51.97752 | 4.37265 | 4987 ft | 242 kts | 227° |
| 2026-04-27 14:44 | 51.96769 | 4.35124 | 4986 ft | 236 kts | 242° |
| 2026-04-27 14:44 | 51.96191 | 4.32590 | 4996 ft | 248 kts | 263° |
| 2026-04-27 14:44 | 51.97130 | 4.31055 | 4713 ft | 239 kts | 12° |
| 2026-04-27 14:45 | 51.98237 | 4.31153 | 5129 ft | 240 kts | 353° |
| 2026-04-27 14:45 | 51.99314 | 4.30484 | 5497 ft | 249 kts | 328° |
| 2026-04-27 14:45 | 52.00357 | 4.28300 | 6057 ft | 251 kts | 291° |
| 2026-04-27 14:45 | 52.00399 | 4.25450 | 6579 ft | 261 kts | 255° |
| 2026-04-27 14:46 | 51.99403 | 4.23005 | 7100 ft | 265 kts | 225° |
| 2026-04-27 14:46 | 51.98008 | 4.21070 | 7619 ft | 266 kts | 222° |
| 2026-04-27 14:46 | 51.96685 | 4.19020 | 8144 ft | 262 kts | 229° |
| 2026-04-27 14:46 | 51.95567 | 4.16693 | 8658 ft | 263 kts | 238° |
| 2026-04-27 14:47 | 51.94692 | 4.14118 | 9171 ft | 259 kts | 248° |
| 2026-04-27 14:47 | 51.94153 | 4.11329 | 9687 ft | 264 kts | 260° |
| 2026-04-27 14:47 | 51.93940 | 4.08401 | 10221 ft | 265 kts | 266° |
| 2026-04-27 14:47 | 51.93764 | 4.05461 | 10712 ft | 262 kts | 263° |
| 2026-04-27 14:48 | 51.93481 | 4.02525 | 11210 ft | 264 kts | 261° |
| 2026-04-27 14:48 | 51.92874 | 3.96644 | 12213 ft | 265 kts | 262° |
| 2026-04-27 14:48 | 51.92599 | 3.93696 | 12728 ft | 265 kts | 262° |
| 2026-04-27 14:49 | 51.92315 | 3.90746 | 13253 ft | 265 kts | 261° |
| 2026-04-27 14:49 | 51.92024 | 3.87786 | 13789 ft | 266 kts | 261° |
| 2026-04-27 14:49 | 51.91733 | 3.84816 | 14298 ft | 267 kts | 261° |
| 2026-04-27 14:49 | 51.91441 | 3.81829 | 14779 ft | 270 kts | 261° |
| 2026-04-27 14:50 | 51.91146 | 3.78823 | 15272 ft | 271 kts | 261° |
| 2026-04-27 14:50 | 51.90848 | 3.75795 | 15766 ft | 273 kts | 262° |
| 2026-04-27 14:50 | 51.90551 | 3.72788 | 16265 ft | 275 kts | 261° |
| 2026-04-27 14:50 | 51.90246 | 3.69721 | 16783 ft | 277 kts | 262° |
| 2026-04-27 14:51 | 51.89940 | 3.66630 | 17306 ft | 279 kts | 262° |
| 2026-04-27 14:51 | 51.89628 | 3.63500 | 17841 ft | 281 kts | 262° |
| 2026-04-27 14:51 | 51.89315 | 3.60364 | 18383 ft | 283 kts | 262° |
| 2026-04-27 14:51 | 51.89105 | 3.58270 | 18716 ft | 285 kts | 262° |
| 2026-04-27 14:52 | 51.88679 | 3.54026 | 19354 ft | 287 kts | 262° |
| 2026-04-27 14:52 | 51.88357 | 3.50829 | 19840 ft | 288 kts | 262° |
| 2026-04-27 14:52 | 51.88033 | 3.47620 | 20331 ft | 290 kts | 262° |
| 2026-04-27 14:52 | 51.87706 | 3.44388 | 20830 ft | 292 kts | 262° |
| 2026-04-27 14:53 | 51.87375 | 3.41138 | 21345 ft | 294 kts | 262° |
| 2026-04-27 14:53 | 51.87043 | 3.37873 | 21862 ft | 295 kts | 262° |
| 2026-04-27 14:53 | 51.86707 | 3.34587 | 22390 ft | 297 kts | 262° |
| 2026-04-27 14:53 | 51.86369 | 3.31285 | 22927 ft | 299 kts | 262° |
| 2026-04-27 14:54 | 51.86026 | 3.27954 | 23470 ft | 301 kts | 262° |
| 2026-04-27 14:54 | 51.85681 | 3.24600 | 23996 ft | 303 kts | 262° |
| 2026-04-27 14:54 | 51.85330 | 3.21208 | 24261 ft | 308 kts | 262° |
| 2026-04-27 14:54 | 51.84944 | 3.17811 | 24262 ft | 307 kts | 257° |
| 2026-04-27 14:55 | 51.84209 | 3.14571 | 24259 ft | 308 kts | 248° |